Butler, South Dakota
Current Conditions -  °F | °C
As of 5:53 AM on Friday 28 Nov 2014 (Local Time) from KABR Reporting Station
Overcast Overcast  
Wind Chill:   Ceiling: 11000
Heat Index: 13°   Visibility: 10mi
Dew Point:   Wind: 6mph
Humidity: 81%   Direction: 50°NE
Pressure: 29.85"   Gusts: NA
Location:  45.2657°N, 97.7493°W
Report Text: KABR 281153Z AUTO 05005KT 10SM OVC110 M11/M13 A2985 RMK AO2 SLP134 T11061133 11094 21128 58014 $
Loading
Personal Weather Stations






























Interactive Weather Map New forecast layout! Learn more

10-Day Weather Forecast

Advertisements
Track Severe Weather on mobile